Lasauses, Colorado
Current Conditions -  °F | °C
As of 8:52 AM on Thursday 30 Oct 2014 (Local Time) from KALS Reporting Station
Clear Clear  
Wind Chill: 35°   Ceiling: Unl
Heat Index: 35°   Visibility: 10mi
Dew Point: 16°   Wind: 0mph
Humidity: 46%   Direction: NA
Pressure: 30.43"   Gusts: NA
Location:  37.2401°N, 105.856°W
Report Text: KALS 301452Z AUTO 00000KT 10SM CLR 02/M09 A3043 RMK AO2 SLP299 T00171089 53012
Loading
Personal Weather Stations






























Interactive Weather Map
Tropical Storm Tracking
New forecast layout! Learn more

10-Day Weather Forecast

Advertisements
Track Severe Weather on mobile